createdAt,value
2018-07-14T00:01:55.186Z,95936.00
2018-07-14T00:04:24.274Z,95937.70
2018-07-14T00:06:53.535Z,95930.23
2018-07-14T00:09:22.612Z,95922.34
2018-07-14T00:11:51.727Z,95920.19
2018-07-14T00:14:20.873Z,95920.09
2018-07-14T00:16:50.789Z,95918.45
2018-07-14T00:19:19.867Z,95920.04
2018-07-14T00:21:48.921Z,95919.06
2018-07-14T00:24:18.048Z,95918.80
2018-07-14T00:26:47.048Z,95919.47
2018-07-14T00:29:16.148Z,95922.28
2018-07-14T00:31:45.225Z,95923.11
2018-07-14T00:34:14.324Z,95921.73
2018-07-14T00:36:43.424Z,95920.84
2018-07-14T00:39:12.592Z,95917.78
2018-07-14T00:41:41.677Z,95912.25
2018-07-14T00:44:10.754Z,95914.87
2018-07-14T00:46:39.889Z,95913.17
2018-07-14T00:49:08.982Z,95910.00
2018-07-14T00:51:38.060Z,95909.19
2018-07-14T00:54:07.167Z,95913.33
2018-07-14T00:56:36.283Z,95914.74
2018-07-14T00:59:05.378Z,95914.58
2018-07-14T01:01:34.523Z,95915.37
2018-07-14T01:04:03.580Z,95906.87
2018-07-14T01:06:32.676Z,95908.16
2018-07-14T01:09:01.752Z,95914.49
2018-07-14T01:11:30.884Z,95908.87
2018-07-14T01:13:59.940Z,95913.11
2018-07-14T01:16:29.102Z,95914.08
2018-07-14T01:18:58.164Z,95907.18
2018-07-14T01:21:27.316Z,95912.70
2018-07-14T01:23:56.425Z,95913.14
2018-07-14T01:26:25.497Z,95911.66
2018-07-14T01:28:54.565Z,95919.12
2018-07-14T01:31:23.745Z,95917.03
2018-07-14T01:33:52.826Z,95921.64
2018-07-14T01:36:21.905Z,95921.42
2018-07-14T01:38:50.965Z,95914.60
2018-07-14T01:41:20.117Z,95913.63
2018-07-14T01:43:49.197Z,95907.77
2018-07-14T01:46:18.382Z,95906.63
2018-07-14T01:48:47.487Z,95900.62
2018-07-14T01:51:16.574Z,95901.94
2018-07-14T01:53:45.626Z,95899.16
2018-07-14T01:56:14.747Z,95904.83
2018-07-14T01:58:43.870Z,95898.97
2018-07-14T02:01:12.936Z,95894.92
2018-07-14T02:03:42.024Z,95894.51
2018-07-14T02:06:11.219Z,95897.84
2018-07-14T02:08:40.280Z,95897.77
2018-07-14T02:11:09.354Z,95899.38
2018-07-14T02:13:38.442Z,95905.39
2018-07-14T02:16:07.857Z,95895.44
2018-07-14T02:18:36.960Z,95898.51
2018-07-14T02:21:06.266Z,95898.16
2018-07-14T02:23:35.340Z,95895.98
2018-07-14T02:26:04.409Z,95898.83
2018-07-14T02:28:33.498Z,95894.38
2018-07-14T02:31:02.662Z,95878.37
2018-07-14T02:33:31.761Z,95881.22
2018-07-14T02:36:00.838Z,95876.83
2018-07-14T02:38:29.943Z,95877.73
2018-07-14T02:40:59.097Z,95886.98
2018-07-14T02:43:28.242Z,95893.53
2018-07-14T02:45:57.393Z,95908.27
2018-07-14T02:48:26.489Z,95916.80
2018-07-14T02:50:55.561Z,95921.67
2018-07-14T02:53:24.633Z,95929.63
2018-07-14T02:55:53.773Z,95931.75
2018-07-14T02:58:22.853Z,95926.41
2018-07-14T03:00:51.926Z,95931.57
2018-07-14T03:03:21.086Z,95926.28
2018-07-14T03:05:50.185Z,95920.68
2018-07-14T03:08:19.253Z,95920.94
2018-07-14T03:10:48.337Z,95919.70
2018-07-14T03:13:17.405Z,95916.60
2018-07-14T03:15:46.489Z,95917.42
2018-07-14T03:18:15.616Z,95917.59
2018-07-14T03:20:44.704Z,95922.91
2018-07-14T03:23:13.835Z,95927.45
2018-07-14T03:25:42.913Z,95924.11
2018-07-14T03:28:11.972Z,95913.00
2018-07-14T03:30:41.151Z,95904.94
2018-07-14T03:33:10.359Z,95915.95
2018-07-14T03:35:39.428Z,95914.66
2018-07-14T03:38:08.476Z,95921.25
2018-07-14T03:40:37.560Z,95916.52
2018-07-14T03:43:06.632Z,95916.30
2018-07-14T03:45:35.734Z,95925.41
2018-07-14T03:48:04.788Z,95925.30
2018-07-14T03:50:33.864Z,95928.84
2018-07-14T03:53:02.930Z,95928.75
2018-07-14T03:55:32.065Z,95933.28
2018-07-14T03:58:01.124Z,95935.73
2018-07-14T04:00:30.271Z,95935.90
2018-07-14T04:02:59.354Z,95941.78
2018-07-14T04:05:28.442Z,95946.06
2018-07-14T04:07:57.589Z,95946.80
2018-07-14T04:10:26.810Z,95937.79
2018-07-14T04:12:55.882Z,95939.52
2018-07-14T04:15:24.945Z,95940.91
2018-07-14T04:18:05.593Z,95939.13
2018-07-14T04:20:36.161Z,95946.42
2018-07-14T04:23:05.267Z,95945.38
2018-07-14T04:25:34.322Z,95947.27
2018-07-14T04:28:03.553Z,95950.98
2018-07-14T04:30:32.629Z,95951.74
2018-07-14T04:33:01.705Z,95949.55
2018-07-14T04:35:30.763Z,95943.56
2018-07-14T04:37:59.936Z,95945.67
2018-07-14T04:40:28.992Z,95939.88
2018-07-14T04:42:58.076Z,95941.19
2018-07-14T04:45:27.152Z,95935.95
2018-07-14T04:47:56.249Z,95936.22
2018-07-14T04:50:25.304Z,95932.59
2018-07-14T04:52:54.378Z,95928.06
2018-07-14T04:55:23.548Z,95929.27
2018-07-14T04:57:52.624Z,95936.98
2018-07-14T05:00:21.732Z,95945.74
2018-07-14T05:02:50.814Z,95955.63
2018-07-14T05:05:19.872Z,95944.48
2018-07-14T05:07:48.926Z,95949.34
2018-07-14T05:10:18.074Z,95940.46
2018-07-14T05:12:47.118Z,95941.62
2018-07-14T05:15:16.257Z,95946.59
2018-07-14T05:17:45.347Z,95944.13
2018-07-14T05:20:14.526Z,95948.40
2018-07-14T05:22:43.577Z,95953.80
2018-07-14T05:25:12.720Z,95953.41
2018-07-14T05:27:41.769Z,95951.33
2018-07-14T05:30:10.847Z,95955.45
2018-07-14T05:32:39.893Z,95958.03
2018-07-14T05:35:08.992Z,95963.69
2018-07-14T05:37:38.088Z,95964.64
2018-07-14T05:40:07.189Z,95959.73
2018-07-14T05:42:36.266Z,95958.45
2018-07-14T05:45:05.376Z,95963.02
2018-07-14T05:47:34.444Z,95968.00
2018-07-14T05:50:03.521Z,95971.47
2018-07-14T05:52:33.760Z,95966.58
2018-07-14T05:55:02.886Z,95974.48
2018-07-14T05:57:31.930Z,95972.78
2018-07-14T06:00:01.014Z,95971.62
2018-07-14T06:02:30.145Z,95976.08
2018-07-14T06:04:59.249Z,95969.66
2018-07-14T06:07:28.281Z,95981.33
2018-07-14T06:09:57.421Z,95979.55
2018-07-14T06:12:26.497Z,95972.98
2018-07-14T06:14:55.613Z,95972.77
2018-07-14T06:17:24.799Z,95970.44
2018-07-14T06:19:53.785Z,95970.57
2018-07-14T06:22:22.853Z,95972.81
2018-07-14T06:24:51.936Z,95976.27
2018-07-14T06:27:21.013Z,95974.09
2018-07-14T06:29:50.059Z,95974.92
2018-07-14T06:32:19.209Z,95977.81
2018-07-14T06:34:48.269Z,95982.45
2018-07-14T06:37:17.531Z,95983.53
2018-07-14T06:39:46.597Z,95984.11
2018-07-14T06:42:15.717Z,95981.17
2018-07-14T06:44:44.786Z,95982.53
2018-07-14T06:47:13.888Z,95978.31
2018-07-14T06:49:42.954Z,95981.58
2018-07-14T06:52:12.060Z,95979.71
2018-07-14T06:54:41.506Z,95973.51
2018-07-14T06:57:10.567Z,95985.09
2018-07-14T06:59:39.627Z,95980.59
2018-07-14T07:02:08.726Z,95982.19
2018-07-14T07:04:37.834Z,95980.71
2018-07-14T07:07:07.215Z,95978.63
2018-07-14T07:09:36.278Z,95984.63
2018-07-14T07:12:05.344Z,95983.37
2018-07-14T07:14:34.429Z,95983.84
2018-07-14T07:17:03.508Z,95980.16
2018-07-14T07:19:32.604Z,95975.66
2018-07-14T07:22:01.710Z,95979.13
2018-07-14T07:24:30.802Z,95979.14
2018-07-14T07:26:59.865Z,95977.63
2018-07-14T07:29:28.938Z,95973.70
2018-07-14T07:31:58.010Z,95977.28
2018-07-14T07:34:27.083Z,95977.16
2018-07-14T07:36:56.199Z,95980.06
2018-07-14T07:39:25.237Z,95976.80
2018-07-14T07:41:54.353Z,95975.63
2018-07-14T07:44:23.441Z,95979.98
2018-07-14T07:46:52.595Z,95975.61
2018-07-14T07:49:21.690Z,95975.14
2018-07-14T07:51:52.125Z,95969.53
2018-07-14T07:54:21.210Z,95975.20
2018-07-14T07:56:50.334Z,95969.47
2018-07-14T07:59:19.410Z,95968.09
2018-07-14T08:01:48.547Z,95969.08
2018-07-14T08:04:17.688Z,95974.98
2018-07-14T08:06:46.772Z,95970.23
2018-07-14T08:09:16.024Z,95967.28
2018-07-14T08:11:45.098Z,95971.84
2018-07-14T08:14:14.290Z,95966.80
2018-07-14T08:16:43.382Z,95965.78
2018-07-14T08:19:12.542Z,95956.69
2018-07-14T08:21:41.673Z,95956.80
2018-07-14T08:24:10.734Z,95949.34
2018-07-14T08:26:39.882Z,95958.57
2018-07-14T08:29:08.944Z,95957.30
2018-07-14T08:31:38.152Z,95958.52
2018-07-14T08:34:08.232Z,95952.45
2018-07-14T08:36:37.359Z,95958.28
2018-07-14T08:39:07.422Z,95953.37
2018-07-14T08:41:36.506Z,95951.52
2018-07-14T08:44:05.593Z,95948.23
2018-07-14T08:46:34.721Z,95952.05
2018-07-14T08:49:03.841Z,95957.23
2018-07-14T08:51:33.004Z,95953.72
2018-07-14T08:54:01.977Z,95951.74
2018-07-14T08:56:31.161Z,95951.98
2018-07-14T08:59:00.197Z,95948.55
2018-07-14T09:01:29.287Z,95952.22
2018-07-14T09:03:58.338Z,95951.67
2018-07-14T09:06:27.505Z,95946.18
2018-07-14T09:08:56.577Z,95940.83
2018-07-14T09:11:25.664Z,95951.41
2018-07-14T09:13:54.813Z,95945.17
2018-07-14T09:16:24.286Z,95939.37
2018-07-14T09:18:53.322Z,95946.95
2018-07-14T09:21:22.509Z,95947.69
2018-07-14T09:23:51.590Z,95947.45
2018-07-14T09:26:20.769Z,95947.68
2018-07-14T09:28:50.350Z,95945.13
2018-07-14T09:31:19.461Z,95945.30
2018-07-14T09:33:48.602Z,95942.94
2018-07-14T09:36:17.669Z,95945.66
2018-07-14T09:38:46.725Z,95939.40
2018-07-14T09:41:15.899Z,95938.30
2018-07-14T09:43:44.929Z,95927.97
2018-07-14T09:46:13.980Z,95929.80
2018-07-14T09:48:43.061Z,95922.98
2018-07-14T09:51:12.128Z,95930.14
2018-07-14T09:53:41.204Z,95934.38
2018-07-14T09:56:10.381Z,95929.89
2018-07-14T09:58:39.470Z,95932.12
2018-07-14T10:01:09.984Z,95911.17
2018-07-14T10:03:39.786Z,95922.16
2018-07-14T10:06:09.004Z,95919.27
2018-07-14T10:08:38.090Z,95902.55
2018-07-14T10:11:07.244Z,95914.88
2018-07-14T10:13:36.310Z,95911.98
2018-07-14T10:16:05.470Z,95912.51
2018-07-14T10:18:34.544Z,95908.82
2018-07-14T10:21:03.700Z,95908.36
2018-07-14T10:23:32.753Z,95909.59
2018-07-14T10:26:01.865Z,95910.16
2018-07-14T10:28:30.980Z,95899.92
2018-07-14T10:31:00.173Z,95906.84
2018-07-14T10:33:29.326Z,95904.09
2018-07-14T10:35:58.366Z,95902.26
2018-07-14T10:38:27.533Z,95892.98
2018-07-14T10:40:56.745Z,95897.44
2018-07-14T10:43:25.858Z,95891.28
2018-07-14T10:45:55.009Z,95893.55
2018-07-14T10:48:24.039Z,95893.96
2018-07-14T10:50:53.130Z,95894.30
2018-07-14T10:53:22.329Z,95890.05
2018-07-14T10:55:51.532Z,95882.52
2018-07-14T10:58:20.614Z,95883.61
2018-07-14T11:00:49.728Z,95883.18
2018-07-14T11:03:18.919Z,95877.72
2018-07-14T11:05:48.325Z,95876.42
2018-07-14T11:08:17.449Z,95874.17
2018-07-14T11:10:46.598Z,95875.67
2018-07-14T11:13:15.680Z,95862.52
2018-07-14T11:15:44.804Z,95863.73
2018-07-14T11:18:14.091Z,95866.67
2018-07-14T11:20:43.100Z,95862.21
2018-07-14T11:23:12.280Z,95863.33
2018-07-14T11:25:41.331Z,95861.97
2018-07-14T11:28:10.418Z,95866.97
2018-07-14T11:30:39.549Z,95854.40
2018-07-14T11:33:15.318Z,95857.20
2018-07-14T11:35:44.369Z,95856.39
2018-07-14T11:38:13.507Z,95860.55
2018-07-14T11:40:42.532Z,95868.48
2018-07-14T11:43:11.604Z,95868.44
2018-07-14T11:45:40.791Z,95859.42
2018-07-14T11:48:09.872Z,95856.45
2018-07-14T11:50:39.094Z,95857.01
2018-07-14T11:53:08.180Z,95860.95
2018-07-14T11:55:37.438Z,95863.41
2018-07-14T11:58:06.504Z,95856.56
2018-07-14T12:00:35.566Z,95858.50
2018-07-14T12:03:04.798Z,95849.23
2018-07-14T12:05:33.996Z,95845.16
2018-07-14T12:08:03.097Z,95847.07
2018-07-14T12:10:32.221Z,95840.00
2018-07-14T12:13:01.347Z,95852.98
2018-07-14T12:15:30.465Z,95860.84
2018-07-14T12:17:59.545Z,95855.47
2018-07-14T12:20:28.674Z,95863.81
2018-07-14T12:22:57.717Z,95861.56
2018-07-14T12:25:26.790Z,95864.28
2018-07-14T12:27:55.830Z,95869.50
2018-07-14T12:30:24.981Z,95871.42
2018-07-14T12:32:53.973Z,95865.48
2018-07-14T12:35:23.084Z,95861.36
2018-07-14T12:37:52.138Z,95859.53
2018-07-14T12:40:21.205Z,95851.38
2018-07-14T12:42:50.249Z,95854.77
2018-07-14T12:45:19.333Z,95846.61
2018-07-14T12:47:48.419Z,95846.16
2018-07-14T12:50:17.492Z,95842.88
2018-07-14T12:52:46.571Z,95849.64
2018-07-14T12:55:15.637Z,95833.91
2018-07-14T12:57:44.849Z,95843.22
2018-07-14T13:00:14.017Z,95839.04
2018-07-14T13:02:43.040Z,95835.00
2018-07-14T13:05:12.209Z,95826.77
2018-07-14T13:07:41.399Z,95824.99
2018-07-14T13:10:10.443Z,95830.61
2018-07-14T13:12:39.572Z,95822.25
2018-07-14T13:15:08.621Z,95820.23
2018-07-14T13:17:37.838Z,95827.28
2018-07-14T13:20:07.049Z,95810.67
2018-07-14T13:22:36.215Z,95815.21
2018-07-14T13:25:05.401Z,95816.05
2018-07-14T13:27:34.568Z,95819.14
2018-07-14T13:30:03.779Z,95812.42
2018-07-14T13:32:32.827Z,95812.77
2018-07-14T13:35:01.989Z,95820.95
2018-07-14T13:37:31.116Z,95816.53
2018-07-14T13:40:00.211Z,95818.28
2018-07-14T13:42:29.312Z,95806.09
2018-07-14T13:44:58.488Z,95812.30
2018-07-14T13:47:27.686Z,95801.19
2018-07-14T13:49:56.700Z,95809.50
2018-07-14T13:52:25.880Z,95804.70
2018-07-14T13:54:55.794Z,95807.02
2018-07-14T13:57:25.010Z,95800.69
2018-07-14T13:59:54.096Z,95798.23
2018-07-14T14:02:23.191Z,95808.36
2018-07-14T14:04:52.309Z,95816.23
2018-07-14T14:07:21.397Z,95814.48
2018-07-14T14:09:50.590Z,95813.36
2018-07-14T14:12:19.687Z,95809.06
2018-07-14T14:14:48.972Z,95802.23
2018-07-14T14:17:18.094Z,95804.69
2018-07-14T14:19:47.348Z,95806.91
2018-07-14T14:22:16.450Z,95806.34
2018-07-14T14:24:45.664Z,95809.20
2018-07-14T14:27:14.750Z,95806.23
2018-07-14T14:29:44.048Z,95801.94
2018-07-14T14:32:13.070Z,95807.03
2018-07-14T14:34:42.276Z,95803.11
2018-07-14T14:37:11.408Z,95801.37
2018-07-14T14:39:40.568Z,95798.26
2018-07-14T14:42:09.673Z,95804.65
2018-07-14T14:44:38.748Z,95796.96
2018-07-14T14:47:07.921Z,95792.20
2018-07-14T14:49:36.976Z,95792.63
2018-07-14T14:52:06.170Z,95792.60
2018-07-14T14:54:35.368Z,95796.97
2018-07-14T14:57:04.467Z,95792.08
2018-07-14T14:59:33.521Z,95787.27
2018-07-14T15:02:02.790Z,95790.05
2018-07-14T15:04:31.906Z,95800.78
2018-07-14T15:07:01.069Z,95808.82
2018-07-14T15:09:30.219Z,95794.61
2018-07-14T15:11:59.318Z,95789.79
2018-07-14T15:14:28.532Z,95790.12
2018-07-14T15:16:57.773Z,95785.13
2018-07-14T15:19:26.869Z,95793.34
2018-07-14T15:21:56.050Z,95800.13
2018-07-14T15:24:25.142Z,95798.50
2018-07-14T15:26:54.343Z,95783.50
2018-07-14T15:29:23.401Z,95785.03
2018-07-14T15:31:52.549Z,95792.50
2018-07-14T15:34:21.572Z,95792.03
2018-07-14T15:36:51.737Z,95806.14
2018-07-14T15:39:20.835Z,95808.70
2018-07-14T15:41:49.910Z,95819.05
2018-07-14T15:44:18.982Z,95828.50
2018-07-14T15:46:48.809Z,95825.23
2018-07-14T15:49:17.868Z,95831.95
2018-07-14T15:51:47.031Z,95838.23
2018-07-14T15:54:16.444Z,95841.75
2018-07-14T15:56:45.690Z,95835.59
2018-07-14T15:59:14.752Z,95840.88
2018-07-14T16:01:43.912Z,95830.96
2018-07-14T16:04:13.044Z,95820.34
2018-07-14T16:06:42.234Z,95808.65
2018-07-14T16:09:11.328Z,95812.31
2018-07-14T16:11:41.416Z,95814.97
2018-07-14T16:14:10.485Z,95820.11
2018-07-14T16:16:39.556Z,95812.27
2018-07-14T16:19:08.743Z,95813.30
2018-07-14T16:21:37.678Z,95816.53
2018-07-14T16:24:06.732Z,95822.66
2018-07-14T16:26:35.952Z,95803.39
2018-07-14T16:29:05.087Z,95798.42
2018-07-14T16:31:37.073Z,95775.23
2018-07-14T16:34:06.177Z,95771.06
2018-07-14T16:36:35.224Z,95760.36
2018-07-14T16:39:06.145Z,95751.37
2018-07-14T16:41:35.304Z,95742.52
2018-07-14T16:44:04.472Z,95757.14
2018-07-14T16:46:33.594Z,95763.45
2018-07-14T16:49:02.711Z,95773.47
2018-07-14T16:51:31.892Z,95766.88
2018-07-14T16:54:01.312Z,95765.34
2018-07-14T16:56:30.442Z,95759.73
2018-07-14T16:58:59.644Z,95758.30
2018-07-14T17:01:28.685Z,95761.44
2018-07-14T17:03:57.766Z,95766.80
2018-07-14T17:06:26.977Z,95749.41
2018-07-14T17:08:56.037Z,95751.84
2018-07-14T17:11:25.112Z,95758.59
2018-07-14T17:13:54.321Z,95748.25
2018-07-14T17:16:23.316Z,95743.44
2018-07-14T17:18:52.398Z,95744.89
2018-07-14T17:21:21.548Z,95742.31
2018-07-14T17:23:50.756Z,95746.11
2018-07-14T17:26:19.830Z,95745.11
2018-07-14T17:28:49.271Z,95737.31
2018-07-14T17:31:18.333Z,95749.56
2018-07-14T17:33:47.517Z,95745.71
2018-07-14T17:36:16.581Z,95747.75
2018-07-14T17:38:45.669Z,95746.06
2018-07-14T17:41:14.756Z,95746.80
2018-07-14T17:43:43.932Z,95738.67
2018-07-14T17:46:13.047Z,95740.21
2018-07-14T17:48:42.197Z,95733.79
2018-07-14T17:51:11.305Z,95737.77
2018-07-14T17:53:40.385Z,95730.95
2018-07-14T17:56:09.548Z,95734.05
2018-07-14T17:58:38.628Z,95736.91
2018-07-14T18:01:07.768Z,95732.95
2018-07-14T18:03:36.839Z,95731.87
2018-07-14T18:06:05.929Z,95731.61
2018-07-14T18:08:35.049Z,95728.68
2018-07-14T18:11:05.147Z,95724.50
2018-07-14T18:13:34.212Z,95733.37
2018-07-14T18:16:03.267Z,95725.98
2018-07-14T18:18:32.436Z,95726.69
2018-07-14T18:21:01.560Z,95720.03
2018-07-14T18:23:30.765Z,95729.47
2018-07-14T18:25:59.859Z,95720.08
2018-07-14T18:28:29.031Z,95719.50
2018-07-14T18:30:58.110Z,95718.69
2018-07-14T18:33:27.362Z,95725.03
2018-07-14T18:35:56.433Z,95719.45
2018-07-14T18:38:25.592Z,95723.52
2018-07-14T18:40:54.695Z,95716.83
2018-07-14T18:43:23.760Z,95721.64
2018-07-14T18:45:52.924Z,95723.23
2018-07-14T18:48:22.190Z,95729.86
2018-07-14T18:50:51.314Z,95735.59
2018-07-14T18:53:20.401Z,95730.09
2018-07-14T18:55:49.506Z,95736.71
2018-07-14T18:58:18.937Z,95727.17
2018-07-14T19:00:48.014Z,95736.89
2018-07-14T19:03:17.121Z,95735.55
2018-07-14T19:05:46.199Z,95736.69
2018-07-14T19:08:15.332Z,95735.78
2018-07-14T19:10:44.410Z,95739.58
2018-07-14T19:13:13.513Z,95744.22
2018-07-14T19:15:42.609Z,95744.53
2018-07-14T19:18:11.873Z,95745.58
2018-07-14T19:20:41.977Z,95753.44
2018-07-14T19:23:11.033Z,95753.06
2018-07-14T19:25:40.281Z,95750.89
2018-07-14T19:28:09.307Z,95757.01
2018-07-14T19:30:38.441Z,95749.39
2018-07-14T19:33:07.521Z,95746.30
2018-07-14T19:35:36.639Z,95764.11
2018-07-14T19:38:05.724Z,95760.20
2018-07-14T19:40:34.874Z,95766.92
2018-07-14T19:43:03.949Z,95765.03
2018-07-14T19:45:33.038Z,95764.83
2018-07-14T19:48:02.208Z,95767.49
2018-07-14T19:50:31.324Z,95764.50
2018-07-14T19:53:00.397Z,95767.15
2018-07-14T19:55:30.577Z,95766.45
2018-07-14T19:57:58.630Z,95774.31
2018-07-14T20:00:28.742Z,95768.75
2018-07-14T20:02:57.831Z,95767.61
2018-07-14T20:05:27.098Z,95769.81
2018-07-14T20:07:56.257Z,95774.38
2018-07-14T20:10:25.453Z,95772.92
2018-07-14T20:12:55.824Z,95774.38
2018-07-14T20:15:25.768Z,95775.45
2018-07-14T20:17:54.907Z,95781.99
2018-07-14T20:20:23.988Z,95769.86
2018-07-14T20:22:53.298Z,95770.55
2018-07-14T20:25:22.578Z,95779.56
2018-07-14T20:27:51.685Z,95778.27
2018-07-14T20:30:20.836Z,95774.23
2018-07-14T20:32:49.963Z,95773.41
2018-07-14T20:35:19.133Z,95773.38
2018-07-14T20:37:48.281Z,95775.56
2018-07-14T20:40:17.397Z,95770.02
2018-07-14T20:42:46.605Z,95768.96
2018-07-14T20:45:15.673Z,95773.00
2018-07-14T20:47:44.811Z,95775.88
2018-07-14T20:51:17.418Z,95775.07
2018-07-14T20:53:46.492Z,95775.83
2018-07-14T20:56:15.590Z,95778.59
2018-07-14T20:58:44.810Z,95780.09
2018-07-14T21:01:13.952Z,95781.50
2018-07-14T21:03:43.033Z,95777.71
2018-07-14T21:06:12.158Z,95777.92
2018-07-14T21:08:41.296Z,95783.42
2018-07-14T21:11:10.367Z,95783.42
2018-07-14T21:13:39.450Z,95783.17
2018-07-14T21:16:08.518Z,95784.98
2018-07-14T21:18:37.711Z,95780.39
2018-07-14T21:21:06.810Z,95780.13
2018-07-14T21:23:35.927Z,95780.45
2018-07-14T21:26:05.000Z,95773.42
2018-07-14T21:28:34.177Z,95781.45
2018-07-14T21:31:03.535Z,95780.42
2018-07-14T21:33:32.666Z,95780.83
2018-07-14T21:36:01.777Z,95786.81
2018-07-14T21:38:30.909Z,95785.30
2018-07-14T21:41:00.104Z,95778.17
2018-07-14T21:43:29.177Z,95782.76
2018-07-14T21:45:58.301Z,95780.42
2018-07-14T21:48:27.381Z,95779.53
2018-07-14T21:50:56.503Z,95777.01
2018-07-14T21:53:25.614Z,95783.48
2018-07-14T21:55:54.814Z,95782.11
2018-07-14T21:58:23.921Z,95777.69
2018-07-14T22:01:03.563Z,95783.23
2018-07-14T22:03:33.638Z,95778.27
2018-07-14T22:06:03.176Z,95778.98
2018-07-14T22:08:32.560Z,95778.45
2018-07-14T22:11:01.978Z,95781.36
2018-07-14T22:13:31.112Z,95773.39
2018-07-14T22:16:00.188Z,95776.86
2018-07-14T22:18:29.359Z,95781.05
2018-07-14T22:20:58.433Z,95778.70
2018-07-14T22:23:28.494Z,95774.03
2018-07-14T22:25:57.591Z,95777.50
2018-07-14T22:28:26.730Z,95773.69
2018-07-14T22:30:55.809Z,95781.08
2018-07-14T22:33:24.960Z,95777.68
2018-07-14T22:35:54.064Z,95773.75
2018-07-14T22:38:23.197Z,95772.86
2018-07-14T22:40:52.285Z,95766.73
2018-07-14T22:43:21.361Z,95771.48
2018-07-14T22:45:50.430Z,95768.41
2018-07-14T22:48:19.613Z,95768.26
2018-07-14T22:50:48.709Z,95767.72
2018-07-14T22:53:17.901Z,95764.07
2018-07-14T22:55:46.993Z,95766.23
2018-07-14T22:58:16.193Z,95772.36
2018-07-14T23:00:45.273Z,95780.80
2018-07-14T23:03:14.385Z,95776.67
2018-07-14T23:05:43.473Z,95773.55
2018-07-14T23:08:12.574Z,95774.41
2018-07-14T23:10:41.672Z,95767.02
2018-07-14T23:13:10.753Z,95772.63
2018-07-14T23:15:39.869Z,95777.54
2018-07-14T23:18:09.096Z,95770.64
2018-07-14T23:20:38.169Z,95768.19
2018-07-14T23:23:07.919Z,95769.72
2018-07-14T23:25:37.047Z,95767.06
2018-07-14T23:28:06.650Z,95757.12
2018-07-14T23:30:35.733Z,95754.05
2018-07-14T23:33:04.824Z,95755.34
2018-07-14T23:35:33.924Z,95750.88
2018-07-14T23:38:03.056Z,95749.99
2018-07-14T23:40:32.230Z,95751.05
2018-07-14T23:43:01.304Z,95753.13
2018-07-14T23:45:30.361Z,95753.75
2018-07-14T23:47:59.557Z,95753.80
2018-07-14T23:50:28.689Z,95745.61
2018-07-14T23:52:57.750Z,95747.57
2018-07-14T23:55:26.920Z,95745.39
2018-07-14T23:57:56.005Z,95748.23
